createdAt,value
2019-01-08T14:16:58.560Z,71.93
2019-01-08T14:17:58.527Z,74.80
2019-01-08T14:18:58.515Z,78.06
2019-01-08T14:19:58.504Z,80.91
2019-01-08T14:20:58.677Z,85.65
2019-01-08T14:26:37.779Z,72.07
2019-01-08T14:27:37.743Z,75.15
2019-01-08T14:28:37.731Z,75.97
2019-01-08T14:29:37.722Z,78.92
2019-01-08T14:30:37.711Z,81.67
2019-01-08T14:31:37.723Z,82.68
2019-01-08T14:32:40.739Z,81.99
2019-01-08T14:33:37.676Z,84.72
2019-01-08T14:34:37.665Z,85.75
2019-01-08T14:35:37.654Z,85.99
2019-01-08T14:36:37.665Z,85.89
2019-01-08T14:37:37.632Z,87.65
2019-01-08T14:38:37.620Z,86.65
2019-01-08T14:39:37.608Z,87.17
2019-01-08T14:40:37.602Z,88.34
2019-01-08T14:41:37.586Z,88.92
2019-01-08T14:42:37.597Z,88.24
2019-01-08T14:43:37.564Z,88.55
2019-01-08T14:44:37.553Z,87.73
2019-01-08T14:45:37.541Z,88.55
2019-01-08T14:46:37.531Z,88.55
2019-01-08T14:47:37.542Z,89.48
2019-01-08T14:48:37.507Z,88.34
2019-01-08T14:49:37.495Z,88.45
2019-01-08T14:50:37.483Z,89.07
2019-01-08T14:51:37.473Z,88.45
2019-01-08T14:52:37.486Z,88.55
2019-01-08T14:53:37.450Z,88.55
2019-01-08T14:54:37.439Z,88.55
2019-01-08T14:55:37.428Z,88.96
2019-01-08T14:56:37.418Z,89.17
2019-01-08T14:57:37.429Z,89.59
2019-01-08T14:58:37.394Z,89.59
2019-01-08T14:59:37.385Z,90.00
2019-01-08T15:00:37.373Z,89.54
2019-01-08T15:01:37.361Z,89.44
2019-01-08T15:02:37.376Z,88.61
2019-01-08T15:03:37.342Z,89.44
2019-01-08T15:04:37.647Z,88.82
2019-01-08T15:05:37.315Z,88.41
2019-01-08T15:06:37.305Z,88.92
2019-01-08T15:07:37.319Z,88.51
2019-01-08T15:08:37.284Z,87.89
2019-01-08T15:09:37.270Z,88.51
2019-01-08T15:10:37.264Z,88.26
2019-01-08T15:11:37.250Z,88.31
2019-01-08T15:12:37.276Z,87.85
2019-01-08T15:13:37.225Z,87.17
2019-01-08T15:14:37.213Z,87.85
2019-01-08T15:15:37.202Z,86.51
2019-01-08T15:16:37.193Z,85.06
2019-01-08T15:17:37.206Z,84.13
2019-01-08T15:18:37.169Z,85.68
2019-01-08T15:19:37.162Z,85.17
2019-01-08T15:20:38.953Z,84.30
2019-01-08T15:21:37.135Z,84.13
2019-01-08T15:22:37.147Z,84.55
2019-01-08T15:23:37.115Z,84.41
2019-01-08T15:24:37.102Z,84.55
2019-01-08T15:25:37.089Z,84.03
2019-01-08T15:26:37.078Z,85.06
2019-01-08T15:27:37.092Z,85.58
2019-01-08T15:28:37.057Z,83.93
2019-01-08T15:29:37.045Z,83.72
2019-01-08T15:30:37.034Z,84.41
2019-01-08T15:31:37.022Z,83.68
2019-01-08T15:32:37.046Z,83.78
2019-01-08T15:33:37.001Z,83.62
2019-01-08T15:34:36.989Z,83.78
2019-01-08T15:35:36.976Z,83.78
2019-01-08T15:36:36.966Z,83.78
2019-01-08T15:37:36.970Z,83.78
2019-01-08T15:38:36.966Z,83.99
2019-01-08T15:39:36.932Z,83.68
2019-01-08T15:40:36.920Z,82.89
2019-01-08T15:41:36.909Z,82.55
2019-01-08T15:42:36.904Z,83.89
2019-01-08T15:43:36.915Z,82.65
2019-01-08T15:44:36.875Z,82.65
2019-01-08T15:45:36.864Z,81.62
2019-01-08T15:46:36.854Z,81.72
2019-01-08T15:47:36.842Z,81.82
2019-01-08T15:48:36.862Z,81.21
2019-01-08T15:49:36.822Z,81.41
2019-01-08T15:50:36.809Z,81.62
2019-01-08T15:51:36.797Z,81.10
2019-01-08T15:52:36.788Z,81.27
2019-01-08T15:53:36.799Z,81.93
2019-01-08T15:54:36.763Z,81.10
2019-01-08T15:55:36.753Z,81.41
2019-01-08T15:56:36.742Z,81.10
2019-01-08T15:57:36.731Z,81.72
2019-01-08T15:58:36.742Z,81.31
2019-01-08T15:59:36.708Z,81.72
2019-01-08T16:00:36.696Z,82.96
2019-01-08T16:01:36.684Z,82.45
2019-01-08T16:02:36.673Z,84.23
2019-01-08T16:03:36.685Z,83.62
2019-01-08T16:04:36.651Z,83.83
2019-01-08T16:05:36.640Z,84.44
2019-01-08T16:06:36.628Z,84.44
2019-01-08T16:07:36.618Z,84.65
2019-01-08T16:08:36.630Z,84.34
2019-01-08T16:09:36.593Z,84.96
2019-01-08T16:10:36.583Z,83.83
2019-01-08T16:11:36.575Z,82.38
2019-01-08T16:12:36.560Z,82.38
2019-01-08T16:13:36.573Z,83.20
2019-01-08T16:14:36.539Z,83.20
2019-01-08T16:15:36.526Z,83.72
2019-01-08T16:16:36.515Z,82.38
2019-01-08T16:17:36.504Z,82.28
2019-01-08T16:18:36.516Z,83.00
2019-01-08T16:19:36.483Z,83.20
2019-01-08T16:20:36.473Z,83.41
2019-01-08T16:21:36.460Z,83.31
2019-01-08T16:22:36.450Z,82.48
2019-01-08T16:23:36.461Z,83.51
2019-01-08T16:24:36.426Z,83.72
2019-01-08T16:25:36.414Z,83.72
2019-01-08T16:26:36.407Z,83.93
2019-01-08T16:27:36.392Z,83.27
2019-01-08T16:28:36.384Z,83.31
2019-01-08T16:29:36.399Z,82.59
2019-01-08T16:30:36.358Z,82.48
2019-01-08T16:31:36.349Z,82.07
2019-01-08T16:32:36.336Z,82.17
2019-01-08T16:33:36.326Z,82.59
2019-01-08T16:34:36.339Z,82.38
2019-01-08T16:35:36.304Z,82.38
2019-01-08T16:36:36.296Z,82.28
2019-01-08T16:37:36.281Z,81.76
2019-01-08T16:38:36.269Z,82.79
2019-01-08T16:39:36.281Z,82.48
2019-01-08T16:40:36.248Z,81.59
2019-01-08T16:41:36.236Z,81.45
2019-01-08T16:42:36.249Z,81.35
2019-01-08T16:43:36.213Z,81.70
2019-01-08T16:44:36.226Z,81.35
2019-01-08T16:45:36.191Z,81.24
2019-01-08T16:46:36.201Z,81.07
2019-01-08T16:47:36.168Z,80.46
2019-01-08T16:48:36.160Z,80.56
2019-01-08T16:49:36.246Z,80.35
2019-01-08T16:50:36.136Z,80.76
2019-01-08T16:51:36.127Z,81.49
2019-01-08T16:52:36.115Z,80.04
2019-01-08T16:53:41.318Z,80.76
2019-01-08T16:54:37.114Z,80.15
2019-01-08T16:55:36.079Z,80.46
2019-01-08T16:56:36.067Z,80.15
2019-01-08T16:57:36.056Z,80.66
2019-01-08T16:58:36.091Z,80.35
2019-01-08T16:59:36.058Z,80.04
2019-01-08T17:00:36.024Z,79.94
2019-01-08T17:01:36.010Z,80.35
2019-01-08T17:02:36.001Z,80.35
2019-01-08T17:03:35.989Z,79.11
2019-01-08T17:04:36.003Z,78.80
2019-01-08T17:05:35.974Z,79.52
2019-01-08T17:06:35.997Z,78.80
2019-01-08T17:07:35.947Z,78.80
2019-01-08T17:08:35.935Z,78.59
2019-01-08T17:09:35.947Z,78.70
2019-01-08T17:10:37.662Z,79.52
2019-01-08T17:11:35.900Z,78.59
2019-01-08T17:12:35.888Z,78.70
2019-01-08T17:13:35.883Z,79.73
2019-01-08T17:14:35.890Z,79.32
2019-01-08T17:15:35.868Z,79.73
2019-01-08T17:16:35.844Z,80.15
2019-01-08T17:17:35.832Z,80.15
2019-01-08T17:18:35.824Z,80.29
2019-01-08T17:19:35.836Z,80.08
2019-01-08T17:20:35.800Z,80.35
2019-01-08T17:21:35.795Z,80.49
2019-01-08T17:22:35.777Z,80.29
2019-01-08T17:23:39.405Z,80.39
2019-01-08T17:24:35.815Z,80.49
2019-01-08T17:25:35.745Z,80.08
2019-01-08T17:26:35.733Z,80.18
2019-01-08T17:27:35.814Z,80.25
2019-01-08T17:28:35.711Z,80.39
2019-01-08T17:29:35.698Z,79.52
2019-01-08T17:30:35.713Z,79.63
2019-01-08T17:31:35.684Z,78.49
2019-01-08T17:32:35.665Z,79.73
2019-01-08T17:33:35.655Z,79.63
2019-01-08T17:34:35.643Z,79.11
2019-01-08T17:35:35.656Z,79.11
2019-01-08T17:36:35.620Z,79.01
2019-01-08T17:37:35.610Z,78.80
2019-01-08T17:38:35.597Z,78.18
2019-01-08T17:39:35.587Z,78.80
2019-01-08T17:40:35.602Z,78.08
2019-01-08T17:41:35.564Z,77.87
2019-01-08T17:42:35.553Z,77.56
2019-01-08T17:43:35.543Z,77.32
2019-01-08T17:44:35.534Z,77.46
2019-01-08T17:45:35.544Z,77.46
2019-01-08T17:46:35.510Z,77.22
2019-01-08T17:47:35.496Z,77.11
2019-01-08T17:48:35.491Z,77.32
2019-01-08T17:49:35.475Z,77.67
2019-01-08T17:50:35.799Z,77.63
2019-01-08T17:51:35.451Z,77.53
2019-01-08T17:52:35.445Z,77.63
2019-01-08T17:53:35.431Z,77.73
2019-01-08T17:54:35.420Z,77.32
2019-01-08T17:55:35.432Z,77.42
2019-01-08T17:56:35.395Z,77.42
2019-01-08T17:57:35.385Z,77.53
2019-01-08T17:58:35.385Z,77.22
2019-01-08T17:59:35.363Z,77.32
2019-01-08T18:00:35.508Z,77.22
2019-01-08T18:01:35.341Z,77.32
2019-01-08T18:02:35.328Z,77.84
2019-01-08T18:03:42.604Z,77.94
2019-01-08T18:04:36.377Z,77.32
2019-01-08T18:05:35.322Z,78.05
2019-01-08T18:06:35.285Z,78.35
2019-01-08T18:07:35.273Z,78.14
2019-01-08T18:08:35.302Z,78.05
2019-01-08T18:09:35.251Z,78.97
2019-01-08T18:10:35.263Z,77.73
2019-01-08T18:11:35.229Z,78.97
2019-01-08T18:12:35.219Z,78.25
2019-01-08T18:13:35.207Z,78.25
2019-01-08T18:14:35.194Z,78.25
2019-01-08T18:15:35.209Z,77.22
2019-01-08T18:16:35.178Z,77.42
2019-01-08T18:17:35.161Z,77.63
2019-01-08T18:18:35.149Z,77.46
2019-01-08T18:19:35.141Z,76.29
2019-01-08T18:20:35.163Z,76.81
2019-01-08T18:21:35.118Z,76.08
2019-01-08T18:22:35.108Z,76.29
2019-01-08T18:23:35.096Z,76.18
2019-01-08T18:24:35.082Z,76.81
2019-01-08T18:25:35.193Z,76.60
2019-01-08T18:26:35.084Z,75.46
2019-01-08T18:27:35.049Z,76.46
2019-01-08T18:28:35.040Z,75.98
2019-01-08T18:29:35.027Z,75.77
2019-01-08T18:30:35.016Z,75.77
2019-01-08T18:31:35.028Z,75.15
2019-01-08T18:32:34.993Z,75.05
2019-01-08T18:33:34.982Z,74.43
2019-01-08T18:34:34.981Z,74.29
2019-01-08T18:35:34.959Z,74.81
2019-01-08T18:36:34.976Z,75.74
2019-01-08T18:37:34.942Z,75.01
2019-01-08T18:38:34.931Z,74.08
2019-01-08T18:39:34.915Z,75.39
2019-01-08T18:40:34.903Z,74.81
2019-01-08T18:41:34.916Z,75.74
2019-01-08T18:42:34.880Z,75.12
2019-01-08T18:43:34.874Z,75.12
2019-01-08T18:44:34.863Z,75.63
2019-01-08T18:45:34.847Z,75.63
2019-01-08T18:46:34.861Z,75.53
2019-01-08T18:47:34.827Z,75.63
2019-01-08T18:48:34.814Z,75.67
2019-01-08T18:49:34.802Z,75.67
2019-01-08T18:50:34.804Z,75.77
2019-01-08T18:51:34.808Z,75.67
2019-01-08T18:52:34.769Z,74.95
2019-01-08T18:53:34.757Z,74.22
2019-01-08T18:54:34.750Z,74.33
2019-01-08T18:55:34.736Z,74.74
2019-01-08T18:56:34.749Z,74.74
2019-01-08T18:57:34.714Z,74.81
2019-01-08T18:58:34.703Z,75.36
2019-01-08T18:59:34.690Z,75.15
2019-01-08T19:00:34.679Z,75.67
2019-01-08T19:01:34.692Z,75.87
2019-01-08T19:02:34.676Z,74.95
2019-01-08T19:03:34.648Z,75.57
2019-01-08T19:04:34.634Z,75.77
2019-01-08T19:05:34.656Z,75.36
2019-01-08T19:06:34.635Z,75.36
2019-01-08T19:07:34.604Z,75.77
2019-01-08T19:08:34.593Z,75.81
2019-01-08T19:09:34.688Z,75.60
2019-01-08T19:10:34.568Z,75.60
2019-01-08T19:11:34.558Z,75.05
2019-01-08T19:12:34.569Z,74.98
2019-01-08T19:13:34.535Z,74.67
2019-01-08T19:14:34.523Z,75.81
2019-01-08T19:15:34.515Z,74.77
2019-01-08T19:16:34.501Z,75.09
2019-01-08T19:17:34.516Z,74.67
2019-01-08T19:18:34.478Z,75.49
2019-01-08T19:19:34.466Z,75.39
2019-01-08T19:20:34.456Z,75.29
2019-01-08T19:21:34.445Z,75.70
2019-01-08T19:22:34.458Z,75.70
2019-01-08T19:23:34.422Z,76.53
2019-01-08T19:24:34.413Z,77.46
2019-01-08T19:25:34.401Z,77.04
2019-01-08T19:26:34.388Z,78.18
2019-01-08T19:27:34.406Z,79.66
2019-01-08T19:28:34.367Z,79.36
2019-01-08T19:29:34.356Z,80.80
2019-01-08T19:30:34.347Z,81.32
2019-01-08T19:31:34.334Z,81.52
2019-01-08T19:32:34.363Z,81.77
2019-01-08T19:33:34.313Z,82.90
2019-01-08T19:34:34.300Z,82.70
2019-01-08T19:35:34.289Z,82.29
2019-01-08T19:36:34.278Z,82.70
2019-01-08T19:37:34.294Z,83.32
2019-01-08T19:38:34.255Z,84.45
2019-01-08T19:39:34.244Z,82.50
2019-01-08T19:40:34.232Z,82.50
2019-01-08T19:41:34.222Z,82.29
2019-01-08T19:42:34.234Z,81.67
2019-01-08T19:43:34.198Z,81.25
2019-01-08T19:44:34.186Z,81.15
2019-01-08T19:45:34.186Z,79.97
2019-01-08T19:46:34.165Z,80.49
2019-01-08T19:47:34.177Z,80.18
2019-01-08T19:48:34.144Z,80.08
2019-01-08T19:49:34.130Z,79.77
2019-01-08T19:50:34.121Z,80.18
2019-01-08T19:51:34.110Z,79.87
2019-01-08T19:52:34.125Z,79.36
2019-01-08T19:53:34.086Z,78.94
2019-01-08T19:54:34.075Z,79.25
2019-01-08T19:55:34.068Z,78.84
2019-01-08T19:56:34.053Z,78.63
2019-01-08T19:57:34.045Z,78.22
2019-01-08T19:58:34.056Z,77.91
2019-01-08T19:59:34.019Z,78.11
2019-01-08T20:00:34.010Z,78.11
2019-01-08T20:01:34.002Z,77.81
2019-01-08T20:02:33.995Z,77.91
2019-01-08T20:03:33.998Z,77.70
2019-01-08T20:04:33.964Z,77.29
2019-01-08T20:05:33.959Z,77.50
2019-01-08T20:06:33.944Z,77.25
2019-01-08T20:07:33.931Z,77.50
2019-01-08T20:08:33.961Z,76.67
2019-01-08T20:09:33.909Z,76.77
2019-01-08T20:10:33.897Z,77.50
2019-01-08T20:11:33.885Z,76.26
2019-01-08T20:12:33.875Z,76.26
2019-01-08T20:13:33.889Z,76.32
2019-01-08T20:14:33.853Z,77.60
2019-01-08T20:15:33.841Z,77.39
2019-01-08T20:16:33.830Z,76.32
2019-01-08T20:17:33.819Z,77.29
2019-01-08T20:18:33.832Z,76.22
2019-01-08T20:19:33.797Z,76.98
2019-01-08T20:20:33.784Z,76.77
2019-01-08T20:21:33.874Z,77.46
2019-01-08T20:22:33.763Z,77.36
2019-01-08T20:23:33.774Z,76.36
2019-01-08T20:24:33.739Z,76.05
2019-01-08T20:25:33.727Z,75.95
2019-01-08T20:26:33.717Z,76.22
2019-01-08T20:27:33.705Z,75.81
2019-01-08T20:28:33.717Z,76.15
2019-01-08T20:29:33.680Z,75.74
2019-01-08T20:30:33.670Z,76.64
2019-01-08T20:31:33.660Z,77.70
2019-01-08T20:32:33.649Z,76.56
2019-01-08T20:33:33.661Z,76.22
2019-01-08T20:34:33.629Z,76.05
2019-01-08T20:35:33.613Z,77.50
2019-01-08T20:36:33.603Z,77.08
2019-01-08T20:37:33.591Z,76.36
2019-01-08T20:38:33.605Z,77.60
2019-01-08T20:39:33.571Z,77.29
2019-01-08T20:40:33.558Z,77.39
2019-01-08T20:41:33.556Z,77.19
2019-01-08T20:42:33.534Z,76.32
2019-01-08T20:43:33.551Z,76.67
2019-01-08T20:44:33.519Z,77.70
2019-01-08T20:45:33.504Z,77.29
2019-01-08T20:46:33.490Z,77.39
2019-01-08T20:47:33.482Z,77.29
2019-01-08T20:48:33.481Z,77.50
2019-01-08T20:49:33.482Z,77.50
2019-01-08T20:50:33.444Z,77.19
2019-01-08T20:51:33.433Z,77.29
2019-01-08T20:52:33.422Z,77.60
2019-01-08T20:53:33.435Z,77.91
2019-01-08T20:54:33.401Z,77.70
2019-01-08T20:55:33.388Z,78.01
2019-01-08T20:56:33.378Z,77.70
2019-01-08T20:57:33.366Z,77.81
2019-01-08T20:58:33.357Z,78.22
2019-01-08T20:59:33.370Z,78.63
2019-01-08T21:00:33.332Z,78.53
2019-01-08T21:01:33.324Z,77.91
2019-01-08T21:02:33.309Z,78.11
2019-01-08T21:03:33.299Z,77.50
2019-01-08T21:04:35.742Z,77.81
2019-01-08T21:05:33.275Z,78.11
2019-01-08T21:06:33.264Z,78.84
2019-01-08T21:07:33.252Z,78.63
2019-01-08T21:08:33.247Z,79.15
2019-01-08T21:09:33.265Z,79.05
2019-01-08T21:10:33.218Z,79.77
2019-01-08T21:11:33.209Z,79.15
2019-01-08T21:12:33.198Z,79.05
2019-01-08T21:13:33.186Z,78.98
2019-01-08T21:14:33.196Z,78.77
2019-01-08T21:15:33.163Z,79.15
2019-01-08T21:16:33.152Z,79.08
2019-01-08T21:17:33.139Z,79.60
2019-01-08T21:18:33.130Z,79.60
2019-01-08T21:19:33.142Z,79.60
2019-01-08T21:20:33.108Z,79.29
2019-01-08T21:21:33.097Z,80.22
2019-01-08T21:22:33.084Z,80.53
2019-01-08T21:23:33.071Z,80.53
2019-01-08T21:24:33.086Z,80.36
2019-01-08T21:25:33.053Z,80.36
2019-01-08T21:26:33.037Z,80.57
2019-01-08T21:27:33.027Z,81.09
2019-01-08T21:28:33.016Z,80.88
2019-01-08T21:29:33.029Z,81.09
2019-01-08T21:30:32.995Z,81.29
2019-01-08T21:31:32.982Z,81.60
2019-01-08T21:32:32.972Z,81.49
2019-01-08T21:33:32.961Z,81.29
2019-01-08T21:34:32.973Z,81.09
2019-01-08T21:35:32.938Z,81.81
2019-01-08T21:36:32.929Z,81.60
2019-01-08T21:37:32.919Z,81.81
2019-01-08T21:38:32.904Z,81.56
2019-01-08T21:39:32.916Z,81.09
2019-01-08T21:40:32.882Z,80.98
2019-01-08T21:41:32.870Z,80.98
2019-01-08T21:42:32.860Z,81.09
2019-01-08T21:43:32.847Z,80.98
2019-01-08T21:44:32.838Z,80.98
2019-01-08T21:45:32.848Z,81.70
2019-01-08T21:46:32.814Z,81.39
2019-01-08T21:47:32.803Z,81.43
2019-01-08T21:48:32.792Z,81.70
2019-01-08T21:49:32.782Z,81.70
2019-01-08T21:50:32.792Z,81.95
2019-01-08T21:51:32.758Z,81.81
2019-01-08T21:52:32.747Z,81.64
2019-01-08T21:53:32.736Z,83.05
2019-01-08T21:54:32.724Z,82.26
2019-01-08T21:55:32.740Z,82.36
2019-01-08T21:56:32.701Z,81.95
2019-01-08T21:57:32.691Z,82.15
2019-01-08T21:58:32.681Z,81.74
2019-01-08T21:59:32.668Z,82.46
2019-01-08T22:00:32.680Z,82.26
2019-01-08T22:01:32.645Z,82.57
2019-01-08T22:02:32.633Z,81.81
2019-01-08T22:03:32.623Z,81.70
2019-01-08T22:04:32.610Z,83.05
2019-01-08T22:05:32.625Z,82.01
2019-01-08T22:06:32.591Z,82.36
2019-01-08T22:07:32.577Z,82.88
2019-01-08T22:08:32.565Z,82.98
2019-01-08T22:09:32.554Z,82.64
2019-01-08T22:10:32.568Z,82.95
2019-01-08T22:11:32.532Z,83.40
2019-01-08T22:12:32.521Z,82.53
2019-01-08T22:13:32.511Z,83.15
2019-01-08T22:14:32.497Z,82.95
2019-01-08T22:15:32.512Z,82.64
2019-01-08T22:16:32.475Z,83.19
2019-01-08T22:17:32.463Z,82.53
2019-01-08T22:18:32.452Z,82.36
2019-01-08T22:19:32.442Z,82.53
2019-01-08T22:20:32.454Z,82.64
2019-01-08T22:21:32.419Z,81.84
2019-01-08T22:22:32.425Z,82.84
2019-01-08T22:23:32.395Z,82.36
2019-01-08T22:24:32.386Z,82.78
2019-01-08T22:25:32.398Z,82.12
2019-01-08T22:26:32.362Z,82.88
2019-01-08T22:27:32.351Z,82.74
2019-01-08T22:28:32.343Z,83.19
2019-01-08T22:29:32.328Z,82.57
2019-01-08T22:30:32.342Z,83.09
2019-01-08T22:31:32.307Z,82.26
2019-01-08T22:32:32.295Z,82.36
2019-01-08T22:33:32.286Z,82.88
2019-01-08T22:34:32.273Z,82.88
2019-01-08T22:35:32.286Z,82.67
2019-01-08T22:36:32.252Z,82.57
2019-01-08T22:37:32.239Z,82.36
2019-01-08T22:38:32.231Z,82.67
2019-01-08T22:39:32.216Z,82.26
2019-01-08T22:40:32.207Z,82.78
2019-01-08T22:41:32.217Z,83.09
2019-01-08T22:42:32.184Z,82.46
2019-01-08T22:43:32.170Z,82.40
2019-01-08T22:44:32.159Z,83.19
2019-01-08T22:45:32.151Z,83.44
2019-01-08T22:46:32.162Z,83.40
2019-01-08T22:47:32.946Z,83.61
2019-01-08T22:48:32.114Z,83.54
2019-01-08T22:49:32.102Z,83.50
2019-01-08T22:50:32.092Z,83.40
2019-01-08T22:51:32.107Z,83.61
2019-01-08T22:52:32.069Z,83.50
2019-01-08T22:53:32.058Z,84.33
2019-01-08T22:54:32.047Z,84.06
2019-01-08T22:55:32.034Z,83.91
2019-01-08T22:56:32.048Z,83.91
2019-01-08T22:57:32.018Z,84.12
2019-01-08T22:58:32.001Z,83.61
2019-01-08T22:59:31.990Z,83.50
2019-01-08T23:00:31.979Z,82.57
2019-01-08T23:01:32.003Z,84.22
2019-01-08T23:02:31.956Z,84.12
2019-01-08T23:03:31.944Z,84.01
2019-01-08T23:04:31.933Z,84.12
2019-01-08T23:05:31.923Z,84.43
2019-01-08T23:06:31.936Z,84.12
2019-01-08T23:07:31.898Z,83.81
2019-01-08T23:08:31.888Z,84.43
2019-01-08T23:09:31.877Z,84.12
2019-01-08T23:10:31.864Z,84.12
2019-01-08T23:11:31.878Z,82.88
2019-01-08T23:12:31.843Z,84.01
2019-01-08T23:13:31.830Z,83.81
2019-01-08T23:14:31.818Z,84.43
2019-01-08T23:15:31.807Z,84.12
2019-01-08T23:16:31.821Z,83.77
2019-01-08T23:17:31.785Z,83.91
2019-01-08T23:18:31.775Z,84.12
2019-01-08T23:19:31.765Z,83.40
2019-01-08T23:20:31.752Z,83.29
2019-01-08T23:21:31.744Z,83.40
2019-01-08T23:22:31.754Z,82.74
2019-01-08T23:23:31.716Z,82.98
2019-01-08T23:24:31.706Z,82.67
2019-01-08T23:25:31.699Z,82.64
2019-01-08T23:26:31.687Z,82.36
2019-01-08T23:27:31.695Z,82.57
2019-01-08T23:28:31.660Z,82.78
2019-01-08T23:29:31.649Z,82.46
2019-01-08T23:30:31.638Z,82.67
2019-01-08T23:31:31.626Z,82.78
2019-01-08T23:32:31.641Z,82.57
2019-01-08T23:33:31.604Z,83.40
2019-01-08T23:34:31.593Z,82.05
2019-01-08T23:35:31.579Z,82.78
2019-01-08T23:36:31.570Z,83.61
2019-01-08T23:37:31.581Z,84.12
2019-01-08T23:38:31.547Z,83.81
2019-01-08T23:39:31.535Z,84.12
2019-01-08T23:40:31.523Z,83.95
2019-01-08T23:41:31.512Z,84.47
2019-01-08T23:42:31.522Z,84.43
2019-01-08T23:43:31.488Z,84.78
2019-01-08T23:44:31.476Z,84.47
2019-01-08T23:45:31.467Z,85.57
2019-01-08T23:46:31.453Z,84.64
2019-01-08T23:47:31.466Z,84.64
2019-01-08T23:48:31.431Z,84.43
2019-01-08T23:49:31.419Z,84.33
2019-01-08T23:50:31.465Z,84.22
2019-01-08T23:51:31.396Z,83.91
2019-01-08T23:52:31.410Z,83.91
2019-01-08T23:53:31.374Z,83.50
2019-01-08T23:54:31.363Z,83.19
2019-01-08T23:55:31.353Z,82.78
2019-01-08T23:56:31.342Z,82.46
2019-01-08T23:57:31.355Z,82.46
2019-01-08T23:58:31.317Z,81.84
2019-01-08T23:59:31.306Z,81.95
